Time;durP1;ratioP1;P1;durP2;ratioP2;P2;SDS_P1;SDS_P2;PMS_P1;PMS_P2;Temp;Humidity;BMP_temperature;BMP_pressure;BME280_temperature;BME280_humidity;BME280_pressure;Samples;Min_cycle;Max_cycle;Signal;HPM_P1;HPM_P2
2022/06/08 03:03:10;;;;;;;6.87;6.40;;;12.40;99.90;;;;;;4950424;29;20210;-72
2022/06/08 03:06:06;;;;;;;7.37;6.87;;;12.30;99.90;;;;;;4952664;28;20278;-72
2022/06/08 03:08:39;;;;;;;6.17;5.87;;;12.30;99.90;;;;;;4943741;28;20611;-71
2022/06/08 03:11:07;;;;;;;8.37;7.73;;;12.20;99.90;;;;;;4952111;28;20681;-71
2022/06/08 03:13:49;;;;;;;7.00;5.37;;;12.30;99.90;;;;;;4951924;28;20220;-71
2022/06/08 03:16:33;;;;;;;6.23;5.87;;;12.20;99.90;;;;;;5017267;22;20325;-75
2022/06/08 03:19:00;;;;;;;6.33;6.00;;;12.10;99.90;;;;;;5009827;28;20179;-76
2022/06/08 03:21:26;;;;;;;7.33;6.93;;;12.10;99.90;;;;;;5009495;28;20362;-75
2022/06/08 03:23:53;;;;;;;6.10;5.80;;;12.00;99.90;;;;;;5010031;28;20203;-75
2022/06/08 03:26:21;;;;;;;5.83;5.53;;;11.90;99.90;;;;;;5025580;28;20202;-76
2022/06/08 03:28:47;;;;;;;7.43;6.80;;;11.90;99.90;;;;;;5029746;28;20639;-76
2022/06/08 03:31:13;;;;;;;6.63;5.87;;;11.80;99.90;;;;;;5029215;28;20251;-75
2022/06/08 03:33:39;;;;;;;6.67;6.07;;;11.90;99.90;;;;;;5030027;28;20662;-74
2022/06/08 03:36:05;;;;;;;7.57;6.87;;;11.80;99.90;;;;;;5033158;28;20686;-74
2022/06/08 03:38:31;;;;;;;9.10;6.13;;;11.90;99.90;;;;;;5032206;28;20617;-74
2022/06/08 03:40:57;;;;;;;5.70;5.30;;;11.90;99.90;;;;;;5034243;28;20634;-74
2022/06/08 03:43:23;;;;;;;6.30;5.73;;;11.90;99.90;;;;;;5034026;28;20220;-74
2022/06/08 03:45:53;;;;;;;7.33;5.97;;;11.80;99.90;;;;;;5034131;28;20199;-74
2022/06/08 03:48:20;;;;;;;6.00;5.50;;;11.90;99.90;;;;;;5032737;28;20601;-75
2022/06/08 03:50:49;;;;;;;10.30;5.57;;;11.90;99.90;;;;;;5032703;28;20178;-75
2022/06/08 03:53:31;;;;;;;9.17;5.77;;;11.90;99.90;;;;;;5030046;28;20201;-75
2022/06/08 03:56:00;;;;;;;8.80;5.93;;;11.80;99.90;;;;;;5032297;28;20308;-74
2022/06/08 03:58:26;;;;;;;20.40;6.47;;;11.80;99.90;;;;;;5031551;28;20205;-75
2022/06/08 04:00:53;;;;;;;12.17;7.63;;;11.80;99.90;;;;;;5031981;28;20190;-75
2022/06/08 04:03:19;;;;;;;18.77;14.70;;;11.80;99.90;;;;;;5033109;28;20533;-75
2022/06/08 04:05:45;;;;;;;27.43;22.17;;;11.90;99.90;;;;;;5033513;28;20206;-75
2022/06/08 04:08:11;;;;;;;23.57;10.77;;;11.90;99.90;;;;;;5031230;28;20534;-74
2022/06/08 04:10:38;;;;;;;12.03;11.00;;;12.00;99.90;;;;;;5033523;28;20190;-74
2022/06/08 04:13:04;;;;;;;14.30;12.87;;;12.20;99.90;;;;;;5033701;28;20237;-75
2022/06/08 04:15:42;;;;;;;14.17;12.83;;;12.30;99.90;;;;;;5031862;28;20253;-75
2022/06/08 04:18:16;;;;;;;22.83;16.60;;;12.40;99.90;;;;;;5032727;28;20270;-75
2022/06/08 04:20:44;;;;;;;20.73;18.43;;;12.60;99.90;;;;;;5033797;28;20189;-74
2022/06/08 04:23:11;;;;;;;28.07;25.40;;;12.80;99.90;;;;;;5033394;28;20716;-75
2022/06/08 04:25:39;;;;;;;30.63;28.87;;;13.00;99.90;;;;;;5033321;28;20697;-75
2022/06/08 04:28:06;;;;;;;11.83;11.10;;;13.10;99.90;;;;;;5031117;28;20206;-74
2022/06/08 04:30:32;;;;;;;12.53;11.77;;;13.30;99.90;;;;;;5032899;28;20249;-74
2022/06/08 04:32:58;;;;;;;13.80;12.90;;;13.40;99.90;;;;;;5033051;28;20182;-70
2022/06/08 04:35:25;;;;;;;8.93;8.37;;;13.50;99.90;;;;;;5034088;28;20218;-75
2022/06/08 04:37:53;;;;;;;28.43;27.00;;;13.60;99.90;;;;;;5032400;28;20226;-70
2022/06/08 04:40:21;;;;;;;33.97;32.20;;;13.70;99.90;;;;;;5033761;28;20181;-69
2022/06/08 04:42:47;;;;;;;36.50;34.43;;;13.80;99.90;;;;;;5034511;28;20209;-69
2022/06/08 04:45:14;;;;;;;34.13;32.23;;;13.90;99.90;;;;;;5031930;28;20206;-68
2022/06/08 04:47:39;;;;;;;34.77;32.63;;;14.00;99.90;;;;;;5032657;28;20179;-68
2022/06/08 04:50:10;;;;;;;20.33;19.33;;;14.20;99.90;;;;;;5015750;28;20210;-68
2022/06/08 04:52:37;;;;;;;27.33;25.83;;;14.40;99.90;;;;;;5032807;28;20179;-68
2022/06/08 04:55:05;;;;;;;42.87;40.77;;;14.70;99.90;;;;;;5032648;28;20704;-68
2022/06/08 04:57:34;;;;;;;8.30;7.63;;;14.90;99.90;;;;;;5031828;28;20193;-68
2022/06/08 05:00:00;;;;;;;18.90;17.77;;;15.00;99.90;;;;;;5031574;28;20179;-69
2022/06/08 05:02:44;;;;;;;15.43;14.43;;;15.20;99.90;;;;;;5031490;28;20203;-68
2022/06/08 05:05:12;;;;;;;6.37;6.07;;;15.30;99.90;;;;;;5032563;28;20202;-68
2022/06/08 05:07:38;;;;;;;7.43;6.93;;;15.30;99.90;;;;;;5031734;28;20657;-70
2022/06/08 05:10:05;;;;;;;18.63;17.77;;;15.30;99.90;;;;;;5032607;28;20179;-69
2022/06/08 05:12:32;;;;;;;9.53;9.03;;;15.30;99.90;;;;;;5032577;28;20174;-70
2022/06/08 05:14:58;;;;;;;12.97;12.13;;;15.20;99.90;;;;;;5032599;28;20214;-70
2022/06/08 05:17:24;;;;;;;19.63;18.43;;;15.10;99.90;;;;;;5034240;28;20203;-77
2022/06/08 05:19:50;;;;;;;23.47;22.37;;;15.00;99.90;;;;;;5041618;28;20225;-79
2022/06/08 05:22:16;;;;;;;17.33;16.53;;;15.10;99.90;;;;;;5039544;28;20270;-79
2022/06/08 05:24:42;;;;;;;25.43;24.00;;;15.20;99.90;;;;;;5037759;28;20183;-79
2022/06/08 05:27:08;;;;;;;13.97;13.17;;;15.30;99.90;;;;;;5037073;28;20175;-78
2022/06/08 05:29:33;;;;;;;29.63;27.93;;;15.50;99.90;;;;;;5040027;28;20179;-79
2022/06/08 05:31:59;;;;;;;52.30;49.13;;;15.70;99.90;;;;;;5038593;28;20205;-79
2022/06/08 05:34:25;;;;;;;28.70;26.77;;;16.10;99.90;;;;;;5037220;28;20206;-79
2022/06/08 05:36:50;;;;;;;18.67;17.33;;;16.50;99.90;;;;;;5037489;28;20560;-79
2022/06/08 05:39:16;;;;;;;11.20;10.60;;;16.90;99.90;;;;;;5036977;28;20178;-79
2022/06/08 05:41:42;;;;;;;31.77;29.93;;;17.60;99.90;;;;;;5036735;28;20175;-79
2022/06/08 05:44:09;;;;;;;22.33;21.07;;;18.00;99.90;;;;;;5038765;28;20186;-79
2022/06/08 05:46:34;;;;;;;12.93;12.00;;;18.50;99.90;;;;;;5037986;28;20195;-79
2022/06/08 05:49:00;;;;;;;15.67;14.77;;;19.10;99.90;;;;;;5036182;28;20254;-79
2022/06/08 05:51:26;;;;;;;21.27;20.07;;;19.60;99.90;;;;;;5038907;28;20179;-79
2022/06/08 05:53:52;;;;;;;20.33;19.37;;;20.00;99.90;;;;;;5045016;28;20179;-79
2022/06/08 05:56:18;;;;;;;16.53;15.63;;;20.40;99.90;;;;;;5050782;28;20211;-79
2022/06/08 05:58:44;;;;;;;16.83;15.93;;;20.80;99.90;;;;;;5042916;28;20825;-80
2022/06/08 06:01:09;;;;;;;8.07;7.67;;;21.30;99.90;;;;;;5048049;28;20186;-79
2022/06/08 06:03:35;;;;;;;12.68;11.70;;;21.60;99.90;;;;;;5050703;28;20207;-79
2022/06/08 06:06:01;;;;;;;12.68;12.07;;;21.80;99.90;;;;;;5052234;28;20203;-79
2022/06/08 06:08:27;;;;;;;10.50;9.98;;;22.20;99.90;;;;;;5047474;28;20186;-80
2022/06/08 06:10:52;;;;;;;13.57;12.95;;;22.50;99.90;;;;;;5042842;28;20187;-80
2022/06/08 06:13:19;;;;;;;88.60;83.80;;;22.70;99.90;;;;;;5040531;28;20198;-80
2022/06/08 06:15:46;;;;;;;84.43;80.38;;;23.10;99.90;;;;;;5039641;28;20241;-80
2022/06/08 06:18:15;;;;;;;71.70;68.03;;;23.10;99.90;;;;;;5041108;28;20211;-80
2022/06/08 06:20:41;;;;;;;47.72;45.30;;;23.30;99.90;;;;;;5041082;28;20182;-80
2022/06/08 06:23:07;;;;;;;19.50;18.48;;;23.10;99.90;;;;;;5039978;28;20538;-80
2022/06/08 06:25:33;;;;;;;7.30;6.85;;;23.40;99.90;;;;;;5038529;28;20225;-80
2022/06/08 06:27:58;;;;;;;4.32;4.03;;;23.60;99.90;;;;;;5040386;28;20194;-79
2022/06/08 06:30:25;;;;;;;9.07;8.18;;;23.80;99.90;;;;;;5049596;28;20175;-79
2022/06/08 06:32:50;;;;;;;12.20;11.38;;;23.90;99.90;;;;;;5047215;28;20269;-80
2022/06/08 06:35:28;;;;;;;8.60;7.90;;;23.90;99.90;;;;;;5052021;28;20207;-79
2022/06/08 06:37:53;;;;;;;9.52;9.00;;;23.60;99.90;;;;;;5040734;28;20182;-79
2022/06/08 06:40:20;;;;;;;14.07;13.35;;;23.50;99.90;;;;;;5040058;28;20182;-80
2022/06/08 06:42:46;;;;;;;19.38;18.35;;;23.80;99.90;;;;;;5039013;28;20179;-79
2022/06/08 06:45:13;;;;;;;18.95;17.90;;;24.10;99.90;;;;;;5040366;28;20631;-80
2022/06/08 06:47:39;;;;;;;29.05;27.42;;;24.00;99.90;;;;;;5046032;28;20246;-80
2022/06/08 06:50:06;;;;;;;13.10;12.43;;;24.40;99.90;;;;;;5042780;28;20182;-80
2022/06/08 06:52:33;;;;;;;9.27;8.88;;;24.70;99.90;;;;;;5039221;28;20197;-80
2022/06/08 06:54:59;;;;;;;5.78;5.35;;;24.90;99.90;;;;;;5038262;28;20195;-79
2022/06/08 06:57:25;;;;;;;5.22;4.82;;;25.30;99.90;;;;;;5038665;28;20214;-79
2022/06/08 06:59:50;;;;;;;6.75;6.45;;;25.60;99.90;;;;;;5038097;28;20186;-79
2022/06/08 07:02:20;;;;;;;4.65;4.45;;;25.40;99.90;;;;;;5036842;28;20178;-79
2022/06/08 07:04:47;;;;;;;5.15;4.85;;;25.20;99.90;;;;;;5037194;28;20603;-80
2022/06/08 07:07:13;;;;;;;6.65;6.25;;;25.30;99.90;;;;;;5035679;28;20179;-79
2022/06/08 07:09:40;;;;;;;6.30;5.95;;;25.70;99.90;;;;;;5044895;28;20187;-79
2022/06/08 07:12:07;;;;;;;5.25;3.40;;;25.50;99.90;;;;;;5047316;28;20202;-79
2022/06/08 07:14:33;;;;;;;6.25;5.10;;;25.60;99.90;;;;;;5047883;28;20571;-80
2022/06/08 07:16:59;;;;;;;3.85;3.55;;;25.40;99.90;;;;;;5042897;28;20759;-80
2022/06/08 07:19:25;;;;;;;4.70;4.22;;;25.70;99.90;;;;;;5041446;28;20187;-80
2022/06/08 07:21:51;;;;;;;4.53;3.45;;;25.70;99.90;;;;;;5043153;28;20195;-80
2022/06/08 07:24:20;;;;;;;3.97;3.40;;;25.70;99.90;;;;;;5042979;28;20565;-80
2022/06/08 07:26:47;;;;;;;4.30;3.60;;;25.50;99.90;;;;;;5040729;28;20210;-80
2022/06/08 07:29:13;;;;;;;4.28;3.78;;;25.40;99.90;;;;;;5042063;28;20198;-80
2022/06/08 07:31:40;;;;;;;4.03;3.70;;;25.50;99.90;;;;;;5040699;28;20574;-80
2022/06/08 07:34:06;;;;;;;4.80;4.50;;;25.90;99.90;;;;;;5042887;28;20186;-79
2022/06/08 07:36:32;;;;;;;4.90;4.57;;;26.40;99.60;;;;;;5039059;28;20207;-80
2022/06/08 07:38:57;;;;;;;4.28;3.88;;;26.50;99.60;;;;;;5038831;28;20182;-80
2022/06/08 07:41:24;;;;;;;6.40;5.93;;;27.00;96.90;;;;;;5041047;28;20670;-80
2022/06/08 07:43:50;;;;;;;5.18;4.68;;;27.20;99.40;;;;;;5048514;28;20191;-79
2022/06/08 07:46:18;;;;;;;6.40;6.10;;;27.70;97.70;;;;;;5051741;28;20262;-80
2022/06/08 07:51:29;;;;;;;6.70;6.30;;;26.90;98.60;;;;;;5047535;28;20251;-79
2022/06/08 07:53:55;;;;;;;8.38;7.85;;;26.40;99.20;;;;;;5046293;28;20179;-79
2022/06/08 07:56:21;;;;;;;7.22;6.72;;;26.60;99.90;;;;;;5044147;28;20314;-79
2022/06/08 07:58:50;;;;;;;8.27;7.55;;;26.70;97.90;;;;;;5046454;28;20186;-80
2022/06/08 08:01:16;;;;;;;9.77;7.32;;;26.70;98.90;;;;;;5047607;28;20183;-80
2022/06/08 08:03:41;;;;;;;6.72;6.15;;;26.80;98.80;;;;;;5051064;28;20179;-80
2022/06/08 08:06:09;;;;;;;7.78;7.28;;;27.20;95.50;;;;;;5047680;28;20374;-80
2022/06/08 08:08:36;;;;;;;9.25;8.55;;;27.30;92.60;;;;;;5041054;28;20576;-80
2022/06/08 08:11:05;;;;;;;7.00;6.60;;;27.30;92.70;;;;;;5042989;28;20218;-80
2022/06/08 08:13:31;;;;;;;7.82;7.28;;;26.90;93.80;;;;;;5045807;28;20250;-79
2022/06/08 08:15:57;;;;;;;7.00;6.38;;;27.20;92.30;;;;;;5050755;28;20285;-80
2022/06/08 08:18:23;;;;;;;8.23;7.82;;;27.20;92.70;;;;;;5052752;28;20175;-79
2022/06/08 08:20:48;;;;;;;7.20;6.60;;;26.90;91.90;;;;;;5050408;28;20207;-79
2022/06/08 08:23:15;;;;;;;5.05;4.65;;;26.30;91.50;;;;;;5042407;28;20179;-80
2022/06/08 08:25:41;;;;;;;6.07;5.68;;;26.50;94.90;;;;;;5040551;28;20620;-80
2022/06/08 08:28:07;;;;;;;6.53;6.03;;;27.20;94.00;;;;;;5041549;28;20183;-80
2022/06/08 08:30:34;;;;;;;8.15;5.82;;;27.40;91.00;;;;;;5040658;28;20666;-80
2022/06/08 08:33:00;;;;;;;19.52;18.48;;;27.60;91.40;;;;;;5040249;28;20179;-78
2022/06/08 08:35:27;;;;;;;6.00;5.53;;;27.30;89.80;;;;;;5039874;28;20206;-79
2022/06/08 08:37:54;;;;;;;7.50;7.05;;;27.50;92.10;;;;;;5040489;28;20245;-79
2022/06/08 08:40:44;;;;;;;5.80;5.40;;;27.30;91.30;;;;;;5039053;28;20274;-79
2022/06/08 08:43:14;;;;;;;5.97;5.68;;;27.30;91.60;;;;;;5039155;28;20179;-79
2022/06/08 08:46:03;;;;;;;7.90;7.30;;;26.80;90.30;;;;;;5040589;28;20206;-78
2022/06/08 08:48:37;;;;;;;9.00;8.30;;;25.90;91.10;;;;;;5048205;28;20200;-80
2022/06/08 08:51:21;;;;;;;7.75;7.25;;;25.30;92.60;;;;;;5048774;28;20187;-78
2022/06/08 08:54:11;;;;;;;5.60;5.20;;;25.20;91.90;;;;;;5049544;28;20218;-78
2022/06/08 08:56:40;;;;;;;5.30;4.80;;;25.40;94.30;;;;;;5044957;28;20311;-79
2022/06/08 08:59:12;;;;;;;6.55;6.00;;;25.40;94.60;;;;;;5040437;28;20171;-79
2022/06/08 09:01:40;;;;;;;5.82;5.53;;;25.20;93.00;;;;;;5040918;28;20476;-79
2022/06/08 09:04:33;;;;;;;6.32;4.15;;;25.00;92.40;;;;;;5040213;28;20182;-79
2022/06/08 09:07:15;;;;;;;5.57;4.78;;;24.80;92.20;;;;;;5039124;28;20191;-79
2022/06/08 09:09:41;;;;;;;5.03;3.65;;;24.80;94.30;;;;;;5039921;28;20397;-79
2022/06/08 09:12:13;;;;;;;4.38;4.03;;;24.80;92.90;;;;;;5039309;28;20183;-79
2022/06/08 09:14:58;;;;;;;6.28;5.40;;;24.80;93.90;;;;;;5039340;28;20194;-81
2022/06/08 09:17:34;;;;;;;4.90;4.60;;;25.20;94.50;;;;;;5037026;28;20642;-78
2022/06/08 09:20:03;;;;;;;4.10;3.80;;;25.80;94.80;;;;;;5038598;28;20179;-79
2022/06/08 09:22:31;;;;;;;5.88;5.30;;;26.30;93.00;;;;;;5035484;28;20198;-79
2022/06/08 09:24:57;;;;;;;7.35;6.82;;;26.40;91.40;;;;;;5033577;28;20200;-79
2022/06/08 09:27:30;;;;;;;7.68;7.28;;;26.90;91.30;;;;;;5032885;28;20179;-79
2022/06/08 09:30:09;;;;;;;8.73;8.10;;;27.30;90.40;;;;;;5034584;28;20179;-79
2022/06/08 09:32:49;;;;;;;7.85;7.47;;;27.10;82.70;;;;;;5038427;28;20187;-79
2022/06/08 09:35:17;;;;;;;7.25;6.75;;;27.10;90.50;;;;;;5033363;28;20206;-79
2022/06/08 09:37:44;;;;;;;8.68;7.95;;;27.40;89.90;;;;;;5032749;28;20654;-79
2022/06/08 09:43:18;;;;;;;24.20;22.90;;;27.80;80.60;;;;;;5034073;28;20175;-79
2022/06/08 09:45:55;;;;;;;30.65;28.77;;;27.70;80.30;;;;;;5032390;28;20642;-79
2022/06/08 09:51:59;;;;;;;22.80;21.60;;;28.30;82.70;;;;;;5016141;28;20182;-79
2022/06/08 09:54:31;;;;;;;26.83;25.30;;;28.00;82.10;;;;;;5032436;28;20209;-79
2022/06/08 09:57:33;;;;;;;21.35;20.20;;;28.10;80.60;;;;;;5032725;28;20868;-79
2022/06/08 10:00:02;;;;;;;20.05;19.00;;;28.70;78.50;;;;;;5033832;28;20645;-79
2022/06/08 10:02:34;;;;;;;22.02;20.63;;;29.10;73.10;;;;;;5036967;28;20181;-79
2022/06/08 10:05:13;;;;;;;21.95;20.67;;;28.50;77.00;;;;;;5042354;28;20210;-80
2022/06/08 10:07:51;;;;;;;21.83;20.67;;;28.60;74.90;;;;;;5039189;28;20186;-79
2022/06/08 10:10:21;;;;;;;20.42;19.30;;;28.60;72.60;;;;;;5038901;28;20202;-80
2022/06/08 10:12:58;;;;;;;21.42;20.35;;;28.40;71.10;;;;;;5034285;28;20179;-80
2022/06/08 10:15:30;;;;;;;17.30;16.42;;;28.90;69.80;;;;;;5034625;28;20206;-80
2022/06/08 10:18:01;;;;;;;15.60;14.73;;;29.30;67.80;;;;;;5032442;28;20183;-80
2022/06/08 10:20:31;;;;;;;14.57;13.88;;;29.50;66.90;;;;;;5033804;28;20232;-80
2022/06/08 10:23:03;;;;;;;11.07;10.48;;;30.00;66.90;;;;;;5033342;28;20261;-80
2022/06/08 10:25:46;;;;;;;5.00;4.78;;;30.30;63.30;;;;;;5033500;28;20590;-80
2022/06/08 10:28:41;;;;;;;9.63;9.05;;;29.70;56.10;;;;;;5033122;28;20561;-78
2022/06/08 10:31:35;;;;;;;12.75;12.15;;;29.30;61.60;;;;;;5034854;28;20572;-79
2022/06/08 10:34:31;;;;;;;14.52;13.45;;;29.40;62.50;;;;;;5035664;28;20328;-78
2022/06/08 10:37:04;;;;;;;18.60;17.40;;;28.60;62.20;;;;;;5033528;28;20247;-79
2022/06/08 10:39:32;;;;;;;18.38;17.33;;;27.90;66.00;;;;;;5032175;28;20186;-79
2022/06/08 10:45:26;;;;;;;23.00;21.85;;;27.00;69.20;;;;;;5039400;28;20277;-79
2022/06/08 10:48:10;;;;;;;20.88;19.73;;;27.60;64.00;;;;;;5038179;28;20240;-79
2022/06/08 10:50:44;;;;;;;22.50;21.40;;;28.30;62.10;;;;;;5039078;28;20261;-78
2022/06/08 10:56:34;;;;;;;13.38;12.55;;;28.80;61.20;;;;;;5037666;28;20581;-79
2022/06/08 10:59:03;;;;;;;11.27;10.68;;;28.70;60.10;;;;;;5034337;28;20183;-78
2022/06/08 11:01:53;;;;;;;8.48;8.07;;;28.00;58.50;;;;;;5040976;28;20167;-79
2022/06/08 11:04:31;;;;;;;10.13;9.63;;;28.30;56.90;;;;;;5037746;28;20189;-79
2022/06/08 11:07:16;;;;;;;10.25;9.75;;;28.70;58.70;;;;;;5039934;28;20556;-78
2022/06/08 11:10:03;;;;;;;6.07;5.72;;;29.60;56.20;;;;;;5035818;28;20262;-78
2022/06/08 11:12:39;;;;;;;4.90;4.70;;;29.90;55.10;;;;;;5035927;28;20179;-78
2022/06/08 11:15:37;;;;;;;14.50;13.75;;;30.50;55.70;;;;;;5035983;28;20214;-78
2022/06/08 11:18:13;;;;;;;28.08;26.70;;;31.30;53.40;;;;;;5034700;28;20268;-78
2022/06/08 11:20:47;;;;;;;28.38;26.75;;;31.30;53.50;;;;;;5035924;28;20182;-78
2022/06/08 11:23:20;;;;;;;44.90;42.60;;;31.10;55.00;;;;;;5041087;28;20373;-78
2022/06/08 11:26:05;;;;;;;49.42;47.03;;;31.40;53.80;;;;;;5040397;28;20211;-78
2022/06/08 11:28:43;;;;;;;11.18;10.68;;;31.50;52.50;;;;;;5037200;28;20257;-78
2022/06/08 11:31:32;;;;;;;16.08;15.27;;;31.40;48.10;;;;;;5035933;28;20617;-78
2022/06/08 11:34:16;;;;;;;8.27;7.57;;;31.60;48.80;;;;;;5036557;28;20194;-78
2022/06/08 11:37:09;;;;;;;11.20;10.32;;;31.20;47.20;;;;;;5037852;28;20213;-78
2022/06/08 11:39:56;;;;;;;9.05;8.55;;;31.70;50.90;;;;;;5037070;28;20579;-79
2022/06/08 11:42:27;;;;;;;13.80;13.10;;;32.60;48.20;;;;;;5041278;28;20183;-79
2022/06/08 11:45:06;;;;;;;19.83;18.58;;;33.40;48.00;;;;;;5040968;28;20207;-80
2022/06/08 11:47:52;;;;;;;15.18;14.32;;;33.80;46.40;;;;;;5035235;28;20194;-80
2022/06/08 11:50:26;;;;;;;21.70;20.67;;;33.40;46.40;;;;;;5035801;28;20254;-80
2022/06/08 11:53:05;;;;;;;11.75;11.05;;;32.20;48.00;;;;;;5036100;28;20187;-80
2022/06/08 11:55:35;;;;;;;11.80;11.20;;;31.40;47.90;;;;;;5034105;28;20422;-79
2022/06/08 11:58:10;;;;;;;9.60;9.20;;;31.30;48.10;;;;;;5035618;28;20605;-79
2022/06/08 12:00:53;;;;;;;9.43;9.02;;;31.60;49.60;;;;;;5035846;28;20182;-80
2022/06/08 12:03:58;;;;;;;11.43;10.82;;;32.20;48.50;;;;;;5036223;28;20310;-80
2022/06/08 12:06:27;;;;;;;13.07;12.48;;;32.00;47.30;;;;;;5004679;28;20233;-79
2022/06/08 12:09:01;;;;;;;27.65;26.02;;;31.40;51.00;;;;;;5034431;28;20198;-79
2022/06/08 12:11:30;;;;;;;60.50;57.45;;;30.20;52.80;;;;;;5036714;28;20182;-80
2022/06/08 12:14:21;;;;;;;85.65;81.57;;;29.60;53.00;;;;;;5035196;28;20601;-79
2022/06/08 12:17:05;;;;;;;42.85;40.67;;;28.80;54.60;;;;;;5033853;28;20215;-79
2022/06/08 12:19:55;;;;;;;13.57;12.85;;;28.40;55.00;;;;;;5036458;28;20266;-79
2022/06/08 12:22:31;;;;;;;44.40;42.22;;;29.20;54.10;;;;;;5039406;28;20186;-79
2022/06/08 12:25:09;;;;;;;64.68;61.50;;;30.40;52.00;;;;;;5039060;28;20198;-79
2022/06/08 12:27:57;;;;;;;79.07;75.30;;;30.20;51.00;;;;;;5039216;28;20187;-79
2022/06/08 12:30:29;;;;;;;68.00;64.65;;;29.50;51.30;;;;;;5034194;28;20317;-79
2022/06/08 12:32:59;;;;;;;6.22;5.80;;;29.10;51.80;;;;;;5033987;28;20718;-79
2022/06/08 12:35:36;;;;;;;6.40;6.03;;;28.70;56.00;;;;;;5033805;28;20575;-79
2022/06/08 12:38:16;;;;;;;11.75;11.18;;;29.00;54.00;;;;;;5034230;28;20269;-79
2022/06/08 12:40:56;;;;;;;7.80;7.28;;;28.80;52.30;;;;;;5035349;28;20186;-79
2022/06/08 12:43:22;;;;;;;7.28;6.70;;;28.70;53.60;;;;;;5037169;28;20183;-78
2022/06/08 12:46:13;;;;;;;11.55;10.48;;;28.40;53.20;;;;;;5038662;28;20199;-79
2022/06/08 12:49:02;;;;;;;15.15;14.40;;;28.80;51.40;;;;;;5037941;28;20270;-78
2022/06/08 12:51:38;;;;;;;49.13;46.75;;;29.60;51.00;;;;;;5031735;28;20191;-79
2022/06/08 12:54:15;;;;;;;28.30;26.90;;;30.10;48.90;;;;;;5040775;28;20183;-79
2022/06/08 12:56:43;;;;;;;48.28;45.92;;;30.60;52.00;;;;;;5036657;28;20698;-79
2022/06/08 12:59:11;;;;;;;96.38;91.80;;;30.50;49.60;;;;;;5034711;28;20293;-79
2022/06/08 13:01:39;;;;;;;94.28;89.80;;;30.30;50.30;;;;;;5035203;28;20186;-79
2022/06/08 13:04:06;;;;;;;101.68;96.65;;;30.20;49.20;;;;;;5033607;28;20175;-79
2022/06/08 13:06:32;;;;;;;39.63;37.58;;;29.60;50.30;;;;;;5035058;28;20210;-78
2022/06/08 13:08:58;;;;;;;64.32;61.20;;;29.40;51.30;;;;;;5034064;28;20179;-79
2022/06/08 13:11:25;;;;;;;29.52;28.10;;;29.30;50.00;;;;;;5034175;28;20646;-79
2022/06/08 13:13:54;;;;;;;35.40;33.72;;;29.40;50.40;;;;;;5034766;28;20178;-79
2022/06/08 13:16:30;;;;;;;22.20;20.90;;;29.40;50.80;;;;;;5034491;28;20281;-79
2022/06/08 13:18:58;;;;;;;16.13;15.38;;;29.40;51.30;;;;;;5032654;28;20562;-79
2022/06/08 13:21:25;;;;;;;25.40;24.02;;;29.10;52.20;;;;;;5034955;28;20175;-79
2022/06/08 13:23:51;;;;;;;23.20;22.00;;;28.90;51.40;;;;;;5034960;28;20249;-79
2022/06/08 13:26:23;;;;;;;14.45;13.48;;;28.80;51.40;;;;;;5033377;28;20199;-79
2022/06/08 13:28:49;;;;;;;5.75;5.45;;;28.80;52.00;;;;;;5033619;28;20716;-79
2022/06/08 13:31:22;;;;;;;5.70;5.40;;;29.00;54.70;;;;;;5034435;28;20266;-79
2022/06/08 13:33:58;;;;;;;24.77;23.40;;;29.10;54.20;;;;;;5033393;28;20179;-79
2022/06/08 13:36:38;;;;;;;6.90;6.35;;;29.10;51.50;;;;;;5034014;28;20648;-79
2022/06/08 13:39:04;;;;;;;6.50;6.10;;;28.80;52.60;;;;;;5032347;28;20581;-79
2022/06/08 13:41:30;;;;;;;7.55;7.10;;;28.70;52.50;;;;;;5032796;28;20210;-78
2022/06/08 13:43:56;;;;;;;6.68;6.07;;;28.80;54.00;;;;;;5032361;28;20547;-80
2022/06/08 13:46:26;;;;;;;7.65;7.07;;;28.10;53.10;;;;;;5034608;28;20225;-78
2022/06/08 13:48:54;;;;;;;6.93;6.53;;;27.90;52.30;;;;;;5034433;28;20201;-78
2022/06/08 13:51:21;;;;;;;7.18;6.70;;;27.80;51.20;;;;;;5035783;28;20665;-78
2022/06/08 13:53:47;;;;;;;7.25;6.82;;;27.90;51.70;;;;;;5039138;28;20284;-78
2022/06/08 13:56:14;;;;;;;7.85;7.45;;;28.20;52.70;;;;;;5036601;28;20207;-78
2022/06/08 13:58:40;;;;;;;7.43;6.93;;;28.50;50.90;;;;;;5031408;28;20185;-78
2022/06/08 14:01:21;;;;;;;6.45;6.05;;;29.10;50.60;;;;;;5031763;28;20179;-78
2022/06/08 14:03:48;;;;;;;45.72;43.55;;;30.60;49.60;;;;;;5032880;28;20174;-78
2022/06/08 14:14:48;;;;;;;9.18;8.68;;;31.90;47.30;;;;;;5033563;28;20183;-79
2022/06/08 14:17:16;;;;;;;5.25;4.95;;;31.30;46.60;;;;;;5031552;28;20217;-79
2022/06/08 14:19:47;;;;;;;19.35;18.38;;;30.70;45.50;;;;;;5032165;28;20642;-77
2022/06/08 14:22:20;;;;;;;13.43;12.77;;;30.90;49.20;;;;;;5033837;28;20274;-79
2022/06/08 14:24:49;;;;;;;38.88;36.90;;;30.40;47.20;;;;;;5049360;28;20182;-79
2022/06/08 14:27:16;;;;;;;94.85;90.38;;;30.10;50.10;;;;;;5044139;28;20639;-79
2022/06/08 14:29:43;;;;;;;94.95;90.35;;;29.70;49.80;;;;;;5040481;28;20186;-78
2022/06/08 14:32:35;;;;;;;80.05;76.25;;;29.10;49.60;;;;;;5040540;28;20249;-79
2022/06/08 14:35:12;;;;;;;68.82;65.50;;;28.70;49.60;;;;;;5033755;28;20210;-79
2022/06/08 14:37:38;;;;;;;5.25;4.95;;;28.00;50.20;;;;;;5033444;28;20214;-78
2022/06/08 14:40:10;;;;;;;6.55;6.15;;;27.50;52.10;;;;;;5032724;28;20556;-79
2022/06/08 14:42:37;;;;;;;8.43;7.90;;;27.30;53.60;;;;;;5031772;28;20179;-78
2022/06/08 14:45:04;;;;;;;10.05;9.57;;;27.10;54.20;;;;;;5031939;28;20199;-78
2022/06/08 14:47:30;;;;;;;8.10;7.68;;;27.30;53.60;;;;;;5032091;28;20206;-78
2022/06/08 14:49:56;;;;;;;7.95;7.65;;;27.40;52.60;;;;;;5032687;28;20182;-78
2022/06/08 14:52:25;;;;;;;11.00;10.40;;;27.40;52.20;;;;;;5032351;28;20251;-78
2022/06/08 14:54:52;;;;;;;10.32;9.82;;;27.30;52.40;;;;;;5031698;28;20207;-78
2022/06/08 14:57:34;;;;;;;18.35;17.45;;;27.20;53.20;;;;;;5033518;28;20454;-77
2022/06/08 15:00:13;;;;;;;17.48;16.42;;;27.00;56.90;;;;;;5037104;28;20205;-77
2022/06/08 15:02:39;;;;;;;16.80;15.90;;;26.70;56.70;;;;;;5036237;28;20666;-77
2022/06/08 15:05:07;;;;;;;28.10;26.58;;;26.20;58.50;;;;;;5037294;28;20205;-79
2022/06/08 15:07:36;;;;;;;32.10;30.45;;;25.60;59.40;;;;;;5033615;28;20245;-79
2022/06/08 15:10:06;;;;;;;30.23;28.63;;;25.20;62.20;;;;;;5034830;28;20179;-79
2022/06/08 15:12:33;;;;;;;28.02;26.73;;;25.00;63.00;;;;;;5033313;28;20286;-79
2022/06/08 15:15:06;;;;;;;33.22;31.55;;;24.70;62.30;;;;;;5033795;28;20745;-79
2022/06/08 15:17:34;;;;;;;34.08;32.35;;;24.60;62.20;;;;;;5018491;23;20695;-76
2022/06/08 15:20:04;;;;;;;25.65;24.42;;;24.40;62.80;;;;;;4990551;28;20173;-76
2022/06/08 15:22:32;;;;;;;12.05;11.45;;;24.30;64.40;;;;;;4991581;28;20184;-76
2022/06/08 15:25:00;;;;;;;9.48;8.88;;;23.90;65.30;;;;;;4991595;28;20184;-76
2022/06/08 15:27:34;;;;;;;7.15;6.65;;;23.40;66.90;;;;;;4989437;28;20692;-76
2022/06/08 15:30:03;;;;;;;17.10;16.10;;;23.00;69.70;;;;;;4992840;28;20188;-76
2022/06/08 15:32:29;;;;;;;8.25;7.65;;;22.50;73.40;;;;;;4995166;28;20184;-77
2022/06/08 15:34:56;;;;;;;8.25;7.68;;;22.20;75.50;;;;;;4994055;28;20180;-76
2022/06/08 15:37:29;;;;;;;12.80;12.07;;;21.90;78.60;;;;;;4994552;28;20307;-79
2022/06/08 15:39:56;;;;;;;5.68;5.18;;;21.60;80.50;;;;;;4994952;28;20188;-77
2022/06/08 15:42:25;;;;;;;5.65;5.15;;;21.50;83.60;;;;;;4994848;28;20235;-76
2022/06/08 15:44:51;;;;;;;38.75;36.72;;;21.30;85.80;;;;;;4994837;28;20212;-76
2022/06/08 15:47:21;;;;;;;15.00;14.20;;;21.00;90.60;;;;;;4993340;28;20204;-76
2022/06/08 15:49:50;;;;;;;22.53;21.43;;;20.60;93.10;;;;;;4995471;28;20600;-77
2022/06/08 15:52:31;;;;;;;39.47;37.47;;;20.30;96.70;;;;;;4995020;28;20680;-79
2022/06/08 15:55:05;;;;;;;10.67;10.03;;;20.00;99.90;;;;;;4994862;28;20188;-77
2022/06/08 15:57:34;;;;;;;25.27;23.97;;;19.70;99.90;;;;;;4993884;28;20234;-76
2022/06/08 16:00:07;;;;;;;40.20;38.17;;;19.50;99.90;;;;;;4994681;28;20177;-77
2022/06/08 16:02:33;;;;;;;84.50;80.37;;;19.50;99.90;;;;;;4994647;28;20679;-77
2022/06/08 16:04:59;;;;;;;88.17;83.60;;;19.40;99.90;;;;;;4994494;28;20177;-77
2022/06/08 16:07:25;;;;;;;152.37;144.17;;;19.30;99.90;;;;;;4998294;28;20200;-79
2022/06/08 16:09:51;;;;;;;180.90;171.43;;;19.00;99.90;;;;;;5000841;28;20222;-79
2022/06/08 16:12:17;;;;;;;128.73;122.23;;;18.60;99.90;;;;;;4998227;28;20180;-77
2022/06/08 16:14:43;;;;;;;50.97;48.30;;;18.50;99.90;;;;;;4987808;28;20242;-76
2022/06/08 16:17:17;;;;;;;173.43;164.40;;;18.50;99.90;;;;;;4987077;28;20771;-76
2022/06/08 16:19:46;;;;;;;159.07;150.83;;;18.40;99.90;;;;;;4999472;28;20275;-76
2022/06/08 16:22:13;;;;;;;104.00;98.53;;;18.50;99.90;;;;;;4999181;28;20645;-78